This is the latest recevied weather packets stored in our database for station/object DL1AIE-13. If no packets are shown the sender has not sent any weather packets the latest 1 day(s).
| Time | Temp. | Humidity | Pressure | Rain* | Wind** | Luminosity | Snow |
|---|---|---|---|---|---|---|---|
| 1777981050 | 21.11° C | 57% | 1007.9 hPa | 0 mm | 0.89 m/s, 338° | - | - |
| 1777980444 | 21.11° C | 57% | 1008.1 hPa | 0 mm | 1.34 m/s, 325° | - | - |
| 1777979840 | 21.11° C | 56% | 1008.2 hPa | 0 mm | 1.34 m/s, 328° | - | - |
| 1777979237 | 21.67° C | 56% | 1008.2 hPa | 0 mm | 1.34 m/s, 335° | - | - |
| 1777978653 | 21.11° C | 57% | 1008.3 hPa | 0 mm | 0.45 m/s, 346° | - | - |
| 1777978050 | 21.11° C | 57% | 1008.6 hPa | 0 mm | 0.45 m/s, 345° | - | - |
| 1777977446 | 20.56° C | 58% | 1008.7 hPa | 0 mm | 0.45 m/s, 18° | - | - |
| 1777976842 | 20° C | 60% | 1008.8 hPa | 0 mm | 0.45 m/s, 338° | - | - |
| 1777976239 | 20° C | 59% | 1008.8 hPa | 0 mm | 0.45 m/s, 359° | - | - |
| 1777975655 | 20.56° C | 62% | 1008.8 hPa | 0 mm | 1.34 m/s, 359° | - | - |
| 1777975051 | 20° C | 66% | 1008.8 hPa | 0 mm | 0.89 m/s, 22° | - | - |
| 1777974448 | 20° C | 66% | 1008.9 hPa | 0 mm | 1.34 m/s, 6° | - | - |
| 1777973844 | 19.44° C | 69% | 1008.8 hPa | 0 mm | 0.89 m/s, 352° | - | - |
| 1777973240 | 20.56° C | 66% | 1009 hPa | 0 mm | 0.45 m/s, 1° | - | - |
| 1777972637 | 19.44° C | 69% | 1009 hPa | 0 mm | 0 m/s | - | - |
| 1777972053 | 18.89° C | 72% | 1009.2 hPa | 0 mm | 0.45 m/s, 12° | - | - |
| 1777971449 | 18.89° C | 69% | 1009.1 hPa | 0 mm | 0.45 m/s, 14° | - | - |
| 1777970845 | 18.33° C | 70% | 1009.5 hPa | 0 mm | 0.45 m/s, 15° | - | - |
| 1777970242 | 17.78° C | 73% | 1009.4 hPa | 0 mm | 1.34 m/s, 26° | - | - |
| 1777969638 | 18.33° C | 72% | 1009.3 hPa | 0 mm | 0.45 m/s, 14° | - | - |
| 1777969054 | 17.78° C | 75% | 1009.5 hPa | 0 mm | 0.89 m/s, 19° | - | - |
| 1777968451 | 17.22° C | 78% | 1009.5 hPa | 0 mm | 0 m/s | - | - |
| 1777967848 | 16.11° C | 81% | 1009.7 hPa | 0 mm | 0 m/s | - | - |
| 1777967244 | 15.56° C | 82% | 1009.7 hPa | 0 mm | 0 m/s | - | - |
| 1777966036 | 15° C | 85% | 1010 hPa | 0 mm | 0.45 m/s, 13° | - | - |
* Rain latest hour (hover to see other rain measurements)
** Current wind speed in m/s (hover to see current wind gust speed)